Edinboro, Pennsylvania
Current Conditions -  °F | °C
As of 10:51 AM on Friday 28 Nov 2014 (Local Time) from KERI Reporting Station
Overcast Overcast  
Wind Chill: 16°   Ceiling: 2900
Heat Index: 26°   Visibility: 10mi
Dew Point: 13°   Wind: 10mph
Humidity: 58%   Direction: 260°W
Pressure: 30.31"   Gusts: NA
Location:  41.88°N, 80.13°W
Report Text: KERI 281551Z 26009KT 10SM OVC029 M03/M11 A3031 RMK AO2 SNE06 SLP273 P0000 T10331106
Loading
Personal Weather Stations






























Interactive Weather Map New forecast layout! Learn more

10-Day Weather Forecast

Advertisements
Track Severe Weather on mobile